Time;durP1;ratioP1;P1;durP2;ratioP2;P2;SDS_P1;SDS_P2;PMS_P1;PMS_P2;Temp;Humidity;BMP_temperature;BMP_pressure;BME280_temperature;BME280_humidity;BME280_pressure;Samples;Min_cycle;Max_cycle;Signal;HPM_P1;HPM_P2
2022/12/21 00:01:11;;;;;;;8.10;7.40;;;;;;;6.89;100.00;100113.84;5018118;28;20504;-74
2022/12/21 00:03:37;;;;;;;8.30;7.60;;;;;;;6.93;100.00;100111.28;5034548;28;20293;-74
2022/12/21 00:06:04;;;;;;;8.70;7.93;;;;;;;6.98;100.00;100112.16;5032363;28;20308;-74
2022/12/21 00:08:33;;;;;;;8.67;7.97;;;;;;;7.03;100.00;100109.59;5034245;28;20185;-74
2022/12/21 00:10:59;;;;;;;8.87;8.07;;;;;;;7.06;100.00;100095.84;5035650;28;20261;-75
2022/12/21 00:13:26;;;;;;;10.67;9.67;;;;;;;7.08;100.00;100096.72;5035311;28;21037;-76
2022/12/21 00:16:07;;;;;;;10.07;9.20;;;;;;;7.10;100.00;100092.44;5035095;28;20572;-76
2022/12/21 00:18:34;;;;;;;10.63;9.73;;;;;;;7.11;100.00;100082.13;5030969;28;20197;-74
2022/12/21 00:21:04;;;;;;;10.33;9.43;;;;;;;7.12;100.00;100077.88;5032889;28;20241;-74
2022/12/21 00:23:31;;;;;;;11.27;10.23;;;;;;;7.11;100.00;100087.28;5034579;28;20227;-74
2022/12/21 00:25:58;;;;;;;11.13;10.03;;;;;;;7.11;100.00;100083.88;5033228;28;20233;-74
2022/12/21 00:28:23;;;;;;;10.47;9.53;;;;;;;7.10;100.00;100082.16;5033015;28;20190;-74
2022/12/21 00:30:49;;;;;;;11.03;10.03;;;;;;;7.10;100.00;100079.56;5033196;28;20174;-74
2022/12/21 00:33:14;;;;;;;10.87;9.77;;;;;;;7.09;100.00;100076.16;5040117;28;20273;-74
2022/12/21 00:35:40;;;;;;;10.53;9.50;;;;;;;7.10;100.00;100069.28;5039291;28;20206;-74
2022/12/21 00:38:05;;;;;;;11.60;10.47;;;;;;;7.12;100.00;100077.88;5038221;28;20208;-74
2022/12/21 00:40:30;;;;;;;10.13;9.20;;;;;;;7.14;100.00;100073.59;5036620;28;20233;-74
2022/12/21 00:42:56;;;;;;;10.03;9.23;;;;;;;7.18;100.00;100070.16;5030807;28;20185;-75
2022/12/21 00:45:21;;;;;;;10.30;9.40;;;;;;;7.22;100.00;100071.88;5028320;28;20296;-74
2022/12/21 00:47:47;;;;;;;10.17;9.17;;;;;;;7.28;100.00;100069.31;5041409;28;20312;-74
2022/12/21 00:50:13;;;;;;;10.20;9.20;;;;;;;7.32;100.00;100071.03;5038256;28;20189;-74
2022/12/21 00:52:38;;;;;;;8.23;7.50;;;;;;;7.38;100.00;100067.63;5037678;28;20193;-75
2022/12/21 00:55:03;;;;;;;8.20;7.50;;;;;;;7.43;100.00;100063.31;5035169;28;20791;-74
2022/12/21 00:57:29;;;;;;;8.00;7.30;;;;;;;7.50;100.00;100061.59;5031957;28;20205;-75
2022/12/21 00:59:54;;;;;;;6.73;6.13;;;;;;;7.56;100.00;100068.47;5035634;28;20514;-74
2022/12/21 01:02:19;;;;;;;6.67;6.07;;;;;;;7.63;100.00;100067.59;5038215;28;20667;-74
2022/12/21 01:04:45;;;;;;;7.53;5.70;;;;;;;7.68;100.00;100060.75;5017776;28;20223;-75
2022/12/21 01:07:10;;;;;;;6.27;5.67;;;;;;;7.72;100.00;100048.72;5032527;28;20189;-74
2022/12/21 01:09:36;;;;;;;5.40;4.87;;;;;;;7.78;100.00;100057.28;5033289;28;20185;-75
2022/12/21 01:12:01;;;;;;;5.10;4.60;;;;;;;7.85;100.00;100059.88;5018341;28;20268;-74
2022/12/21 01:14:27;;;;;;;5.07;4.57;;;;;;;7.91;100.00;100062.41;5036122;28;20322;-74
2022/12/21 01:16:53;;;;;;;4.47;3.90;;;;;;;7.94;100.00;100055.53;5036000;28;20278;-75
2022/12/21 01:19:20;;;;;;;5.40;3.97;;;;;;;8.00;100.00;100051.25;5030141;28;20236;-75
2022/12/21 01:21:46;;;;;;;3.90;3.10;;;;;;;8.05;100.00;100044.38;5036071;28;20218;-74
2022/12/21 01:24:12;;;;;;;3.60;3.30;;;;;;;8.11;100.00;100054.63;5037383;28;20191;-75
2022/12/21 01:26:37;;;;;;;4.00;3.00;;;;;;;8.18;100.00;100052.91;5036969;28;20546;-75
2022/12/21 01:29:03;;;;;;;3.30;3.00;;;;;;;8.23;100.00;100058.91;5036526;28;20183;-74
2022/12/21 01:31:28;;;;;;;2.90;2.60;;;;;;;8.27;100.00;100052.03;5042194;28;20518;-74
2022/12/21 01:33:53;;;;;;;3.77;3.00;;;;;;;8.32;100.00;100064.03;5040167;28;20719;-74
2022/12/21 01:36:19;;;;;;;2.80;2.60;;;;;;;8.34;100.00;100057.16;5040211;28;20547;-74
2022/12/21 01:38:46;;;;;;;2.77;2.50;;;;;;;8.39;100.00;100060.56;5038606;28;20178;-75
2022/12/21 01:41:18;;;;;;;3.30;2.40;;;;;;;8.44;100.00;100070.88;5039748;28;20209;-74
2022/12/21 01:43:49;;;;;;;2.70;2.27;;;;;;;8.49;100.00;100063.13;5029835;28;20187;-75
2022/12/21 01:46:21;;;;;;;3.87;2.37;;;;;;;8.53;100.00;100065.72;5034937;28;20194;-74
2022/12/21 01:48:57;;;;;;;2.47;2.27;;;;;;;8.58;100.00;100063.13;5038667;28;20196;-76
2022/12/21 01:51:23;;;;;;;4.13;2.70;;;;;;;8.62;100.00;100066.53;5043287;28;20179;-74
2022/12/21 01:53:55;;;;;;;3.00;2.37;;;;;;;8.66;100.00;100068.25;5041837;28;20175;-74
2022/12/21 01:56:27;;;;;;;2.30;2.10;;;;;;;8.67;100.00;100057.06;5024477;28;20200;-75
2022/12/21 01:58:52;;;;;;;3.47;2.10;;;;;;;8.70;100.00;100062.19;5023376;28;20190;-74
2022/12/21 02:01:18;;;;;;;3.43;2.27;;;;;;;8.73;100.00;100049.28;5038985;28;20619;-75
2022/12/21 02:03:48;;;;;;;3.23;2.50;;;;;;;8.77;100.00;100053.56;5035817;28;20186;-75
2022/12/21 02:06:22;;;;;;;3.33;2.33;;;;;;;8.80;100.00;100055.25;5042920;28;20680;-74
2022/12/21 02:08:48;;;;;;;2.00;1.90;;;;;;;8.81;100.00;100050.13;5035882;28;20209;-74
2022/12/21 02:11:13;;;;;;;3.40;2.30;;;;;;;8.83;100.00;100045.81;5037083;28;20171;-75
2022/12/21 02:13:40;;;;;;;3.50;2.30;;;;;;;8.84;100.00;100046.66;5040211;28;20310;-76
2022/12/21 02:16:14;;;;;;;2.30;1.93;;;;;;;8.86;100.00;100055.25;5042694;28;20724;-74
2022/12/21 02:18:40;;;;;;;3.23;2.10;;;;;;;8.87;100.00;100045.75;5038866;28;20292;-75
2022/12/21 02:21:24;;;;;;;2.13;1.90;;;;;;;8.88;100.00;100044.91;5045439;28;20210;-75
2022/12/21 02:24:15;;;;;;;2.90;2.30;;;;;;;8.89;100.00;100051.78;5018356;28;20183;-74
2022/12/21 02:27:02;;;;;;;2.80;2.17;;;;;;;8.88;100.00;100048.34;5031128;28;20199;-74
2022/12/21 02:29:34;;;;;;;2.20;2.00;;;;;;;8.88;100.00;100045.78;5033653;28;20197;-74
2022/12/21 02:32:14;;;;;;;3.03;2.40;;;;;;;8.91;100.00;100042.31;5041434;28;20180;-74
2022/12/21 02:34:47;;;;;;;2.57;2.17;;;;;;;8.90;100.00;100035.44;5035977;28;20221;-74
2022/12/21 02:37:34;;;;;;;7.10;2.00;;;;;;;8.89;100.00;100044.91;5035395;28;20270;-74
2022/12/21 02:40:20;;;;;;;3.83;2.10;;;;;;;8.89;100.00;100039.75;5039414;28;20294;-74
2022/12/21 02:45:57;;;;;;;2.57;2.07;;;;;;;8.89;100.00;100037.16;5043403;28;20268;-75
2022/12/21 02:48:29;;;;;;;3.17;2.00;;;;;;;8.90;100.00;100035.44;5044651;28;20182;-74
2022/12/21 02:51:00;;;;;;;2.83;2.20;;;;;;;8.94;100.00;100035.38;5040153;28;20183;-74
2022/12/21 02:53:31;;;;;;;3.63;1.70;;;;;;;8.96;100.00;100035.41;5039876;28;20197;-76
2022/12/21 02:55:57;;;;;;;2.10;1.90;;;;;;;8.96;100.00;100027.66;5049348;28;20206;-74
2022/12/21 02:58:23;;;;;;;2.80;1.97;;;;;;;8.96;100.00;100025.06;5044264;28;20737;-74
2022/12/21 03:00:52;;;;;;;3.27;1.90;;;;;;;8.96;100.00;100023.34;5042008;28;20216;-75
2022/12/21 03:03:47;;;;;;;2.60;1.73;;;;;;;8.97;100.00;100019.88;5042722;28;20190;-75
2022/12/21 03:06:25;;;;;;;3.23;2.00;;;;;;;8.98;100.00;100021.59;5038967;28;20293;-77
2022/12/21 03:09:02;;;;;;;2.93;2.17;;;;;;;8.98;100.00;100020.75;5044608;28;20289;-77
2022/12/21 03:11:39;;;;;;;2.57;1.70;;;;;;;8.98;100.00;100023.34;5041350;28;20181;-76
2022/12/21 03:14:18;;;;;;;3.17;1.93;;;;;;;8.98;100.00;100020.75;5035266;28;20575;-74
2022/12/21 03:16:59;;;;;;;2.20;2.00;;;;;;;8.99;100.00;100025.91;5035893;28;20308;-77
2022/12/21 03:19:54;;;;;;;2.90;1.73;;;;;;;8.99;100.00;100030.22;5042073;28;20197;-74
2022/12/21 03:22:29;;;;;;;2.70;1.90;;;;;;;9.01;100.00;100031.03;5030875;28;20206;-74
2022/12/21 03:25:21;;;;;;;2.27;1.73;;;;;;;9.03;100.00;100033.63;5043312;28;20586;-75
2022/12/21 03:27:50;;;;;;;2.87;1.60;;;;;;;9.04;100.00;100022.44;5038596;28;20186;-75
2022/12/21 03:30:18;;;;;;;1.60;1.50;;;;;;;9.06;100.00;100028.47;5034385;28;20753;-74
2022/12/21 03:32:50;;;;;;;3.13;1.80;;;;;;;9.07;100.00;100025.84;5035867;28;20187;-75
2022/12/21 03:35:29;;;;;;;5.73;2.07;;;;;;;9.08;100.00;100026.69;5035543;28;20205;-75
2022/12/21 03:37:57;;;;;;;2.00;1.80;;;;;;;9.07;100.00;100027.59;5034603;28;20183;-75
2022/12/21 03:40:30;;;;;;;2.93;2.00;;;;;;;9.07;100.00;100031.00;5035828;28;20202;-74
2022/12/21 03:43:05;;;;;;;1.93;1.80;;;;;;;9.07;100.00;100035.34;5032651;28;20183;-75
2022/12/21 03:45:42;;;;;;;2.40;2.20;;;;;;;9.08;100.00;100034.44;5032092;28;20207;-74
2022/12/21 03:48:23;;;;;;;2.67;2.00;;;;;;;9.09;100.00;100029.28;5032184;28;20311;-74
2022/12/21 03:50:51;;;;;;;2.93;1.80;;;;;;;9.09;100.00;100029.28;5038750;28;20179;-75
2022/12/21 03:53:25;;;;;;;2.70;2.10;;;;;;;9.11;100.00;100024.97;5036895;28;20183;-75
2022/12/21 03:55:53;;;;;;;2.13;1.60;;;;;;;9.12;100.00;100025.81;5036292;28;20215;-74
2022/12/21 03:58:19;;;;;;;2.27;1.73;;;;;;;9.12;100.00;100026.69;5038945;28;20244;-74
2022/12/21 04:00:56;;;;;;;2.07;1.87;;;;;;;9.12;100.00;100018.94;5040375;28;20206;-74
2022/12/21 04:03:27;;;;;;;1.90;1.70;;;;;;;9.14;100.00;100021.50;5046259;28;20178;-74
2022/12/21 04:06:07;;;;;;;2.17;1.73;;;;;;;9.14;100.00;100017.22;5033248;28;20931;-75
2022/12/21 04:08:32;;;;;;;2.67;1.47;;;;;;;9.14;100.00;100008.59;5037277;28;20375;-75
2022/12/21 04:10:58;;;;;;;4.60;1.90;;;;;;;9.16;100.00;100014.59;5031723;28;20187;-75
2022/12/21 04:13:23;;;;;;;3.30;1.73;;;;;;;9.15;100.00;100012.88;5033897;28;20185;-75
2022/12/21 04:16:04;;;;;;;2.30;2.10;;;;;;;9.16;100.00;100014.59;5032654;28;20593;-75
2022/12/21 04:21:14;;;;;;;2.97;1.83;;;;;;;9.16;100.00;100014.59;5036903;28;20215;-74
2022/12/21 04:29:07;;;;;;;2.07;1.87;;;;;;;9.18;100.00;100009.41;5039641;28;20198;-75
2022/12/21 04:31:32;;;;;;;2.40;2.20;;;;;;;9.18;100.00;100006.84;5033161;28;20183;-75
2022/12/21 04:34:00;;;;;;;2.57;2.17;;;;;;;9.20;100.00;100005.09;5021566;28;20249;-75
2022/12/21 04:39:09;;;;;;;4.20;3.80;;;;;;;9.19;100.00;100006.84;5038574;28;20270;-75
2022/12/21 04:41:35;;;;;;;4.30;3.90;;;;;;;9.18;100.00;99999.97;5031715;28;20214;-74
2022/12/21 04:44:00;;;;;;;4.13;3.80;;;;;;;9.17;100.00;100005.13;5037220;28;20197;-75
2022/12/21 04:46:25;;;;;;;3.53;3.23;;;;;;;9.14;100.00;100006.00;5034965;28;20588;-75
2022/12/21 04:48:51;;;;;;;3.50;3.23;;;;;;;9.13;100.00;100010.34;5022626;28;20184;-75
2022/12/21 04:51:20;;;;;;;3.43;3.10;;;;;;;9.13;100.00;100010.34;5039697;28;20202;-74
2022/12/21 04:53:46;;;;;;;3.53;3.23;;;;;;;9.12;100.00;100005.16;5023374;28;20660;-74
2022/12/21 04:56:12;;;;;;;4.07;2.90;;;;;;;9.11;100.00;100006.91;5040089;28;20596;-75
2022/12/21 04:58:39;;;;;;;2.80;2.60;;;;;;;9.11;100.00;99999.16;5041298;28;20282;-75
2022/12/21 05:01:11;;;;;;;3.30;2.50;;;;;;;9.12;100.00;99994.84;5036540;28;20301;-75
2022/12/21 05:03:37;;;;;;;3.90;2.90;;;;;;;9.11;100.00;99998.28;5040643;28;20201;-75
2022/12/21 05:06:02;;;;;;;4.00;3.40;;;;;;;9.09;100.00;99995.72;5040212;28;20627;-75
2022/12/21 05:08:28;;;;;;;4.60;3.90;;;;;;;9.09;100.00;99987.97;5042184;28;20199;-75
2022/12/21 05:10:54;;;;;;;4.50;4.10;;;;;;;9.08;100.00;99987.97;5040550;28;20186;-75
2022/12/21 05:13:19;;;;;;;4.30;3.90;;;;;;;9.08;100.00;99988.84;5038607;28;20403;-75
2022/12/21 05:15:45;;;;;;;4.60;3.87;;;;;;;9.07;100.00;99994.88;5037492;28;20883;-75
2022/12/21 05:18:10;;;;;;;3.90;3.50;;;;;;;9.07;100.00;99992.28;5024154;28;20192;-75
2022/12/21 05:20:36;;;;;;;3.90;3.50;;;;;;;9.05;100.00;99983.69;5024705;28;20207;-74
2022/12/21 05:23:01;;;;;;;3.87;3.57;;;;;;;9.06;100.00;99998.31;5035885;28;20194;-74
2022/12/21 05:25:26;;;;;;;5.00;4.30;;;;;;;9.06;100.00;99997.47;5037535;28;20202;-74
2022/12/21 05:27:52;;;;;;;5.63;4.30;;;;;;;9.05;100.00;99985.44;5035424;28;20183;-74
2022/12/21 05:30:17;;;;;;;4.40;4.00;;;;;;;9.05;100.00;99983.69;5039440;28;20194;-75
2022/12/21 05:32:43;;;;;;;6.57;3.63;;;;;;;9.06;100.00;99988.00;5041963;28;20611;-74
2022/12/21 05:35:09;;;;;;;5.37;3.67;;;;;;;9.05;100.00;99985.44;5042414;28;20695;-74
2022/12/21 05:37:34;;;;;;;4.70;3.13;;;;;;;9.02;100.00;99978.56;5035943;28;20301;-75
2022/12/21 05:39:59;;;;;;;4.43;3.70;;;;;;;9.03;100.00;99982.84;5030068;28;20211;-74
2022/12/21 05:42:25;;;;;;;5.03;3.73;;;;;;;9.02;100.00;99969.97;5032780;28;20195;-75
2022/12/21 05:44:50;;;;;;;15.97;14.47;;;;;;;9.00;100.00;99978.56;5036575;28;20218;-75
2022/12/21 05:47:15;;;;;;;8.53;7.83;;;;;;;9.00;100.00;99973.41;5034837;28;20282;-75
2022/12/21 05:49:41;;;;;;;7.30;6.60;;;;;;;8.98;100.00;99970.00;5041677;28;20186;-74
2022/12/21 05:52:06;;;;;;;5.33;4.83;;;;;;;9.00;100.00;99968.25;5040395;28;20195;-74
2022/12/21 05:54:31;;;;;;;5.13;4.33;;;;;;;9.00;100.00;99969.97;5033923;28;20317;-74
2022/12/21 05:56:56;;;;;;;4.43;3.73;;;;;;;9.03;100.00;99963.94;5046349;28;20330;-73
2022/12/21 05:59:22;;;;;;;6.27;3.03;;;;;;;9.04;100.00;99958.75;5041310;28;20195;-74
2022/12/21 06:01:47;;;;;;;3.10;2.80;;;;;;;9.09;100.00;99963.88;5039022;28;20701;-74
2022/12/21 06:04:13;;;;;;;3.60;2.27;;;;;;;9.11;100.00;99962.13;5030589;28;20237;-74
2022/12/21 06:06:38;;;;;;;2.60;2.40;;;;;;;9.14;100.00;99969.88;5039800;28;20191;-75
2022/12/21 06:09:04;;;;;;;2.90;2.60;;;;;;;9.15;100.00;99967.25;5029372;28;20262;-74
2022/12/21 06:11:31;;;;;;;2.97;2.23;;;;;;;9.17;100.00;99961.22;5050818;28;20190;-73
2022/12/21 06:13:57;;;;;;;2.90;2.30;;;;;;;9.17;100.00;99969.84;5048560;28;20246;-73
2022/12/21 06:16:24;;;;;;;3.73;2.30;;;;;;;9.19;100.00;99965.53;5044768;28;20230;-74
2022/12/21 06:18:51;;;;;;;2.87;2.10;;;;;;;9.19;100.00;99960.38;5019586;28;20197;-75
2022/12/21 06:21:17;;;;;;;3.57;2.57;;;;;;;9.21;100.00;99973.25;5038503;28;20214;-77
2022/12/21 06:23:44;;;;;;;2.97;2.17;;;;;;;9.21;100.00;99963.78;5033342;28;20192;-76
2022/12/21 06:26:12;;;;;;;2.27;1.97;;;;;;;9.24;100.00;99978.41;5037190;28;20214;-75
2022/12/21 06:28:38;;;;;;;3.00;2.30;;;;;;;9.25;100.00;99969.78;5043265;28;20206;-76
2022/12/21 06:31:12;;;;;;;2.47;2.27;;;;;;;9.27;100.00;99978.38;5040461;28;20188;-75
2022/12/21 06:33:38;;;;;;;3.83;2.40;;;;;;;9.29;100.00;99971.47;5030904;28;20188;-75
2022/12/21 06:36:05;;;;;;;4.27;2.77;;;;;;;9.30;100.00;99979.19;5046185;28;20216;-74
2022/12/21 06:38:31;;;;;;;2.97;2.17;;;;;;;9.33;100.00;99982.63;5024678;28;20667;-74
2022/12/21 06:41:02;;;;;;;2.37;1.90;;;;;;;9.36;100.00;99985.19;5026372;28;20210;-75
2022/12/21 06:43:30;;;;;;;4.47;2.30;;;;;;;9.37;100.00;99987.75;5039593;28;20254;-74
2022/12/21 06:45:58;;;;;;;2.03;1.83;;;;;;;9.39;100.00;99988.59;5041600;28;20215;-75
2022/12/21 06:48:25;;;;;;;3.70;2.10;;;;;;;9.39;100.00;99990.31;5042619;28;20202;-74
2022/12/21 06:50:54;;;;;;;4.33;2.20;;;;;;;9.45;100.00;99992.84;5040237;28;20196;-74
2022/12/21 06:53:21;;;;;;;4.37;2.30;;;;;;;9.45;100.00;99995.44;5033998;28;20219;-75
2022/12/21 06:55:47;;;;;;;4.70;2.60;;;;;;;9.46;100.00;99995.41;5034197;28;20214;-75
2022/12/21 06:58:13;;;;;;;3.43;2.47;;;;;;;9.49;100.00;99999.72;5033585;28;20195;-74
2022/12/21 07:00:39;;;;;;;4.03;2.30;;;;;;;9.49;100.00;100012.63;5037486;28;20234;-74
2022/12/21 07:03:04;;;;;;;3.90;2.33;;;;;;;9.50;100.00;100008.28;5053606;28;20191;-75
2022/12/21 07:05:30;;;;;;;4.67;2.67;;;;;;;9.49;100.00;100010.03;5045187;28;20609;-75
2022/12/21 07:07:55;;;;;;;2.70;2.50;;;;;;;9.52;100.00;100012.59;5036877;28;20275;-74
2022/12/21 07:10:21;;;;;;;2.63;2.30;;;;;;;9.54;100.00;100015.16;5042361;28;20187;-74
2022/12/21 07:12:46;;;;;;;3.00;2.33;;;;;;;9.54;100.00;100013.41;5043199;28;20849;-74
2022/12/21 07:15:11;;;;;;;3.87;2.87;;;;;;;9.55;100.00;100011.69;5044705;28;20253;-75
2022/12/21 07:17:37;;;;;;;6.90;2.40;;;;;;;9.55;100.00;100012.53;5039190;28;20206;-74
2022/12/21 07:20:02;;;;;;;3.33;1.97;;;;;;;9.58;100.00;100022.00;5043099;28;20194;-75
2022/12/21 07:22:27;;;;;;;4.20;2.30;;;;;;;9.58;100.00;100014.25;5037103;28;20533;-74
2022/12/21 07:24:53;;;;;;;4.53;2.50;;;;;;;9.59;100.00;100022.00;5037550;28;20322;-74
2022/12/21 07:27:18;;;;;;;5.67;2.73;;;;;;;9.57;100.00;100013.38;5036712;28;20211;-75
2022/12/21 07:29:43;;;;;;;3.63;2.57;;;;;;;9.60;100.00;100028.03;5046698;28;20286;-74
2022/12/21 07:32:09;;;;;;;5.13;2.97;;;;;;;9.59;100.00;100023.72;5053213;28;20249;-74
2022/12/21 07:34:35;;;;;;;4.47;2.60;;;;;;;9.61;100.00;100035.75;5046354;28;20293;-75
2022/12/21 07:37:00;;;;;;;6.40;2.77;;;;;;;9.61;100.00;100040.91;5045172;28;20277;-75
2022/12/21 07:39:25;;;;;;;4.63;2.33;;;;;;;9.63;100.00;100042.63;5045808;28;20197;-75
2022/12/21 07:41:51;;;;;;;3.83;2.50;;;;;;;9.63;100.00;100046.06;5035612;28;20255;-74
2022/12/21 07:44:16;;;;;;;4.13;2.90;;;;;;;9.65;100.00;100046.91;5038763;28;20760;-74
2022/12/21 07:46:41;;;;;;;4.67;3.47;;;;;;;9.66;100.00;100047.78;5038470;28;20237;-75
2022/12/21 07:49:07;;;;;;;3.73;2.90;;;;;;;9.64;100.00;100045.19;5044496;28;20191;-75
2022/12/21 07:51:32;;;;;;;3.20;2.87;;;;;;;9.64;100.00;100045.19;5029325;28;20191;-74
2022/12/21 07:53:57;;;;;;;4.33;2.80;;;;;;;9.64;100.00;100046.94;5041849;28;20254;-75
2022/12/21 07:56:23;;;;;;;4.57;2.73;;;;;;;9.63;100.00;100046.06;5038215;28;20678;-74
2022/12/21 07:58:48;;;;;;;3.70;2.80;;;;;;;9.64;100.00;100046.94;5041026;28;20886;-75
2022/12/21 08:01:16;;;;;;;5.63;3.37;;;;;;;9.63;100.00;100042.63;5029191;28;20210;-75
2022/12/21 08:03:44;;;;;;;5.60;3.17;;;;;;;9.64;100.00;100052.09;5043959;28;20201;-74
2022/12/21 08:06:11;;;;;;;4.60;3.33;;;;;;;9.64;100.00;100052.09;5041483;28;20210;-74
2022/12/21 08:08:37;;;;;;;3.30;2.97;;;;;;;9.62;100.00;100052.09;5041119;28;20326;-75
2022/12/21 08:11:04;;;;;;;3.67;2.80;;;;;;;9.64;100.00;100054.69;5039829;28;20199;-74
2022/12/21 08:13:29;;;;;;;3.70;3.10;;;;;;;9.65;100.00;100046.91;5041205;28;20218;-75
2022/12/21 08:16:03;;;;;;;4.63;3.20;;;;;;;9.67;100.00;100047.75;5034807;28;20715;-74
2022/12/21 08:18:28;;;;;;;6.20;3.13;;;;;;;9.69;100.00;100045.16;5040306;28;20276;-74
2022/12/21 08:20:55;;;;;;;5.53;3.40;;;;;;;9.68;100.00;100046.88;5049212;28;20748;-74
2022/12/21 08:23:20;;;;;;;3.97;2.90;;;;;;;9.70;100.00;100041.69;5059776;28;20250;-74
2022/12/21 08:25:46;;;;;;;5.43;2.87;;;;;;;9.69;100.00;100043.44;5048104;28;20389;-74
2022/12/21 08:28:12;;;;;;;5.83;3.13;;;;;;;9.69;100.00;100035.69;5038635;28;20264;-74
2022/12/21 08:30:38;;;;;;;3.53;2.60;;;;;;;9.71;100.00;100036.53;5051142;28;20191;-75
2022/12/21 08:33:03;;;;;;;4.43;3.20;;;;;;;9.73;100.00;100044.25;5036539;28;20198;-74
2022/12/21 08:35:29;;;;;;;3.67;2.50;;;;;;;9.76;100.00;100041.66;5043648;28;20334;-75
2022/12/21 08:37:55;;;;;;;3.53;2.60;;;;;;;9.76;100.00;100047.66;5040841;28;20738;-74
2022/12/21 08:40:20;;;;;;;3.90;2.50;;;;;;;9.81;100.00;100049.34;5053159;28;20749;-74
2022/12/21 08:42:46;;;;;;;5.63;2.80;;;;;;;9.82;100.00;100044.19;5043759;28;20193;-74
2022/12/21 08:45:12;;;;;;;3.43;2.20;;;;;;;9.85;100.00;100044.13;5043982;28;20210;-74
2022/12/21 08:47:38;;;;;;;2.93;2.23;;;;;;;9.89;100.00;100044.97;5054171;28;20194;-74
2022/12/21 08:50:04;;;;;;;4.90;2.33;;;;;;;9.93;100.00;100032.88;5054232;28;20561;-73
2022/12/21 08:52:29;;;;;;;2.67;1.97;;;;;;;9.96;100.00;100035.44;5055525;28;20314;-75
2022/12/21 08:54:54;;;;;;;3.40;2.37;;;;;;;10.01;100.00;100036.22;5053394;28;20229;-75
2022/12/21 08:57:20;;;;;;;2.90;2.27;;;;;;;10.05;100.00;100037.91;5056388;28;20242;-74
2022/12/21 08:59:46;;;;;;;3.67;2.20;;;;;;;10.09;100.00;100042.19;5037789;28;20240;-74
2022/12/21 09:02:11;;;;;;;4.43;2.33;;;;;;;10.15;100.00;100049.00;5041283;28;20213;-74
2022/12/21 09:04:36;;;;;;;4.83;2.40;;;;;;;10.16;100.00;100056.75;5050659;28;20281;-75
2022/12/21 09:07:02;;;;;;;4.40;2.43;;;;;;;10.23;100.00;100060.09;5052439;28;20194;-74
2022/12/21 09:09:28;;;;;;;4.73;3.10;;;;;;;10.30;100.00;100064.34;5060260;28;20189;-74
2022/12/21 09:11:54;;;;;;;3.50;3.20;;;;;;;10.37;100.00;100065.97;5055114;28;20179;-75
2022/12/21 09:14:19;;;;;;;3.80;3.23;;;;;;;10.43;100.00;100074.59;5041367;28;20802;-74
2022/12/21 09:16:44;;;;;;;5.50;4.43;;;;;;;10.47;100.00;100074.53;5045639;28;20218;-75
2022/12/21 09:19:10;;;;;;;3.90;3.50;;;;;;;10.49;100.00;100080.53;5050084;28;20988;-74
2022/12/21 09:21:35;;;;;;;5.07;4.30;;;;;;;10.52;100.00;100080.50;5037425;28;20219;-74
2022/12/21 09:24:00;;;;;;;3.60;2.93;;;;;;;10.59;100.00;100085.63;5042747;28;20196;-74
2022/12/21 09:26:26;;;;;;;2.80;2.50;;;;;;;10.69;100.00;100087.22;5050574;28;20333;-74
2022/12/21 09:28:51;;;;;;;4.33;2.70;;;;;;;10.81;100.00;100084.47;5051389;28;20749;-74
2022/12/21 09:31:21;;;;;;;2.90;2.57;;;;;;;10.94;100.00;100085.16;5043015;28;20667;-74
2022/12/21 09:33:47;;;;;;;3.27;2.90;;;;;;;11.02;100.00;100095.41;5039826;28;20595;-75
2022/12/21 09:36:13;;;;;;;3.33;3.03;;;;;;;11.10;100.00;100098.75;5036815;28;20205;-74
2022/12/21 09:38:39;;;;;;;4.03;3.30;;;;;;;11.17;100.00;100099.50;5028619;28;20281;-74
2022/12/21 09:41:05;;;;;;;3.50;2.43;;;;;;;11.17;100.00;100096.06;5041253;28;20221;-74
2022/12/21 09:43:48;;;;;;;4.73;2.50;;;;;;;11.21;100.00;100090.81;5047692;28;20202;-75
2022/12/21 09:46:14;;;;;;;2.63;2.33;;;;;;;11.24;100.00;100095.97;5044292;28;20231;-74
2022/12/21 09:48:46;;;;;;;2.50;2.30;;;;;;;11.29;100.00;100101.91;5040276;28;20216;-74
2022/12/21 09:51:24;;;;;;;2.87;2.40;;;;;;;11.40;100.00;100093.97;5054191;28;20192;-75
2022/12/21 09:53:58;;;;;;;3.53;2.27;;;;;;;11.58;100.00;100090.22;5042598;28;20192;-74
2022/12/21 09:56:26;;;;;;;2.53;2.00;;;;;;;11.73;100.00;100096.03;5053447;28;20559;-74
2022/12/21 09:58:53;;;;;;;2.63;2.00;;;;;;;11.86;100.00;100088.91;5055889;28;21117;-75
2022/12/21 10:01:43;;;;;;;3.80;2.13;;;;;;;11.94;100.00;100094.84;5047564;28;20734;-74
2022/12/21 10:04:38;;;;;;;2.97;2.00;;;;;;;11.94;100.00;100093.97;5041924;28;20181;-75
2022/12/21 10:07:10;;;;;;;3.57;2.03;;;;;;;11.93;100.00;100100.03;5047066;28;20185;-75
2022/12/21 10:09:45;;;;;;;2.10;1.80;;;;;;;11.90;100.00;100085.41;5047684;28;20183;-75
2022/12/21 10:12:45;;;;;;;2.23;1.60;;;;;;;11.90;100.00;100086.25;5035895;28;22364;-75
2022/12/21 10:15:29;;;;;;;2.03;1.57;;;;;;;11.94;100.00;100084.47;5025165;28;20249;-74
2022/12/21 10:18:09;;;;;;;2.03;1.80;;;;;;;11.97;100.00;100080.97;5042062;28;20713;-74
2022/12/21 10:20:46;;;;;;;2.40;1.60;;;;;;;11.98;100.00;100083.53;5042358;28;20215;-75
2022/12/21 10:23:26;;;;;;;2.67;1.50;;;;;;;11.93;100.00;100079.28;5041826;28;20189;-75
2022/12/21 10:25:57;;;;;;;1.37;1.27;;;;;;;11.87;100.00;100083.69;5046278;28;20591;-74
2022/12/21 10:28:30;;;;;;;2.63;1.77;;;;;;;11.80;100.00;100089.88;5054374;28;20254;-74
2022/12/21 10:31:04;;;;;;;1.97;1.40;;;;;;;11.73;100.00;100086.53;5054919;28;20223;-74
2022/12/21 10:33:30;;;;;;;2.90;1.57;;;;;;;11.69;100.00;100089.22;5055138;28;20188;-75
2022/12/21 10:36:02;;;;;;;1.77;1.40;;;;;;;11.67;100.00;100088.38;5043239;28;20213;-73
2022/12/21 10:38:33;;;;;;;2.67;1.40;;;;;;;11.62;100.00;100085.88;5041609;28;20292;-74
2022/12/21 10:41:00;;;;;;;2.93;1.70;;;;;;;11.58;100.00;100087.63;5043910;28;20223;-74
2022/12/21 10:43:26;;;;;;;1.70;1.60;;;;;;;11.54;100.00;100082.53;5030089;28;20188;-73
2022/12/21 10:45:51;;;;;;;2.10;1.50;;;;;;;11.50;100.00;100080.88;5047159;28;20253;-74
2022/12/21 10:48:19;;;;;;;2.20;1.60;;;;;;;11.49;100.00;100089.56;5045825;28;20544;-74
2022/12/21 10:50:47;;;;;;;1.87;1.70;;;;;;;11.49;100.00;100090.38;5044724;28;20183;-74
2022/12/21 10:53:24;;;;;;;1.37;1.27;;;;;;;11.48;100.00;100093.03;5044648;28;20238;-74
2022/12/21 10:55:56;;;;;;;1.70;1.60;;;;;;;11.47;100.00;100096.50;5046701;28;20222;-74
2022/12/21 10:58:30;;;;;;;2.10;1.70;;;;;;;11.49;100.00;100099.91;5048675;28;20211;-74
2022/12/21 11:01:02;;;;;;;1.60;1.50;;;;;;;11.53;100.00;100093.78;5054073;28;20216;-73
2022/12/21 11:03:34;;;;;;;2.40;1.63;;;;;;;11.54;100.00;100091.19;5055788;28;20185;-74
2022/12/21 11:06:10;;;;;;;2.30;1.53;;;;;;;11.56;100.00;100089.44;5039287;28;20247;-74
2022/12/21 11:08:52;;;;;;;2.00;1.67;;;;;;;11.63;100.00;100092.78;5048277;28;20659;-74
2022/12/21 11:11:35;;;;;;;2.30;1.43;;;;;;;11.73;100.00;100091.72;5048741;28;20221;-75
2022/12/21 11:14:03;;;;;;;1.90;1.23;;;;;;;11.82;100.00;100088.13;5048901;28;20727;-74
2022/12/21 11:16:31;;;;;;;1.60;1.23;;;;;;;11.88;100.00;100088.00;5050205;28;20228;-74
2022/12/21 11:19:01;;;;;;;1.23;1.13;;;;;;;11.95;100.00;100085.31;5050890;28;20202;-74
2022/12/21 11:21:50;;;;;;;3.17;1.30;;;;;;;12.05;100.00;100081.69;5042155;28;20775;-74
2022/12/21 11:24:30;;;;;;;1.57;1.47;;;;;;;12.12;100.00;100079.84;5045781;28;20201;-74
2022/12/21 11:27:00;;;;;;;1.60;1.43;;;;;;;12.19;100.00;100082.28;5035292;28;20286;-74
2022/12/21 11:29:29;;;;;;;1.80;1.43;;;;;;;12.20;100.00;100078.81;5032531;28;20587;-74
2022/12/21 11:32:01;;;;;;;1.83;1.43;;;;;;;12.19;100.00;100084.88;5023408;28;20533;-74
2022/12/21 11:34:34;;;;;;;1.33;1.23;;;;;;;12.19;100.00;100081.44;5039900;28;20189;-74
2022/12/21 11:37:04;;;;;;;3.20;1.40;;;;;;;12.16;100.00;100078.91;5037226;28;20189;-74
2022/12/21 11:39:30;;;;;;;1.60;1.37;;;;;;;12.14;100.00;100076.34;5041550;28;20251;-74
2022/12/21 11:41:55;;;;;;;2.10;1.43;;;;;;;12.15;100.00;100079.78;5041771;28;20767;-75
2022/12/21 11:44:31;;;;;;;1.57;1.30;;;;;;;12.11;100.00;100070.34;5029734;28;20202;-75
2022/12/21 11:47:05;;;;;;;2.13;1.40;;;;;;;12.03;100.00;100062.69;5039227;28;20692;-76